createdAt,value
2022-08-07T00:02:36.200Z,18.20
2022-08-07T00:04:09.563Z,18.20
2022-08-07T00:07:01.455Z,18.20
2022-08-07T00:09:35.586Z,18.10
2022-08-07T00:12:03.361Z,18.10
2022-08-07T00:14:31.661Z,18.10
2022-08-07T00:17:02.522Z,18.00
2022-08-07T00:20:00.341Z,18.00
2022-08-07T00:22:24.816Z,18.00
2022-08-07T00:25:07.040Z,18.00
2022-08-07T00:27:52.283Z,17.90
2022-08-07T00:30:27.371Z,17.80
2022-08-07T00:32:58.360Z,17.80
2022-08-07T00:35:29.712Z,17.80
2022-08-07T00:37:59.388Z,17.70
2022-08-07T00:40:39.457Z,17.70
2022-08-07T00:43:10.837Z,17.70
2022-08-07T00:45:59.319Z,17.70
2022-08-07T00:48:30.914Z,17.60
2022-08-07T00:51:01.182Z,17.60
2022-08-07T00:53:38.992Z,17.60
2022-08-07T00:56:16.126Z,17.50
2022-08-07T00:58:46.946Z,17.50
2022-08-07T01:01:15.650Z,17.40
2022-08-07T01:03:56.618Z,17.40
2022-08-07T01:06:29.227Z,17.40
2022-08-07T01:09:01.142Z,17.40
2022-08-07T01:12:23.721Z,17.30
2022-08-07T01:14:28.240Z,17.30
2022-08-07T01:16:57.933Z,17.20
2022-08-07T01:19:27.409Z,17.20
2022-08-07T01:22:00.499Z,17.20
2022-08-07T01:24:32.215Z,17.20
2022-08-07T01:27:01.107Z,17.10
2022-08-07T01:29:31.530Z,17.10
2022-08-07T01:32:05.554Z,17.00
2022-08-07T01:34:39.777Z,17.00
2022-08-07T01:37:09.616Z,17.00
2022-08-07T01:40:00.219Z,17.00
2022-08-07T01:42:37.586Z,17.00
2022-08-07T01:45:15.721Z,16.90
2022-08-07T01:48:18.300Z,16.90
2022-08-07T01:50:36.403Z,16.90
2022-08-07T01:53:08.653Z,16.90
2022-08-07T01:55:47.660Z,16.90
2022-08-07T01:58:28.931Z,16.90
2022-08-07T02:01:58.747Z,16.80
2022-08-07T02:04:38.254Z,16.80
2022-08-07T02:07:09.839Z,16.80
2022-08-07T02:09:53.089Z,16.80
2022-08-07T02:12:29.185Z,16.80
2022-08-07T02:15:06.771Z,16.70
2022-08-07T02:17:36.118Z,16.70
2022-08-07T02:20:09.818Z,16.70
2022-08-07T02:22:52.991Z,16.70
2022-08-07T02:26:11.438Z,16.70
2022-08-07T02:28:25.614Z,16.70
2022-08-07T02:30:56.947Z,16.70
2022-08-07T02:33:32.728Z,16.70
2022-08-07T02:36:30.525Z,16.70
2022-08-07T02:38:59.827Z,16.60
2022-08-07T02:41:33.516Z,16.60
2022-08-07T02:44:05.938Z,16.60
2022-08-07T02:46:36.822Z,16.60
2022-08-07T02:49:05.877Z,16.60
2022-08-07T02:51:42.351Z,16.60
2022-08-07T02:54:20.190Z,16.50
2022-08-07T02:56:49.517Z,16.50
2022-08-07T02:59:24.096Z,16.50
2022-08-07T03:01:56.499Z,16.40
2022-08-07T03:04:29.913Z,16.40
2022-08-07T03:07:07.039Z,16.40
2022-08-07T03:09:43.377Z,16.40
2022-08-07T03:12:22.078Z,16.40
2022-08-07T03:14:52.815Z,16.40
2022-08-07T03:17:22.233Z,16.30
2022-08-07T03:19:55.587Z,16.30
2022-08-07T03:22:30.262Z,16.30
2022-08-07T03:25:00.358Z,16.30
2022-08-07T03:27:30.890Z,16.30
2022-08-07T03:30:17.354Z,16.30
2022-08-07T03:32:58.386Z,16.20
2022-08-07T03:35:43.541Z,16.20
2022-08-07T03:38:13.786Z,16.20
2022-08-07T03:40:44.247Z,16.10
2022-08-07T03:43:14.525Z,16.10
2022-08-07T03:45:47.600Z,16.10
2022-08-07T03:48:15.597Z,16.00
2022-08-07T03:50:51.990Z,15.90
2022-08-07T03:54:00.761Z,15.90
2022-08-07T03:56:13.615Z,15.90
2022-08-07T03:59:08.325Z,15.80
2022-08-07T04:01:32.128Z,15.80
2022-08-07T04:04:00.287Z,15.80
2022-08-07T04:06:37.996Z,15.80
2022-08-07T04:09:14.995Z,15.70
2022-08-07T04:12:25.319Z,15.70
2022-08-07T04:14:37.778Z,15.70
2022-08-07T04:17:16.468Z,15.60
2022-08-07T04:19:52.093Z,15.60
2022-08-07T04:22:29.083Z,15.60
2022-08-07T04:25:01.198Z,15.50
2022-08-07T04:27:35.819Z,15.50
2022-08-07T04:30:21.084Z,15.50
2022-08-07T04:32:59.079Z,15.50
2022-08-07T04:35:27.025Z,15.50
2022-08-07T04:38:03.385Z,15.50
2022-08-07T04:40:52.257Z,15.50
2022-08-07T04:44:12.843Z,15.50
2022-08-07T04:47:04.371Z,15.50
2022-08-07T04:50:04.180Z,15.50
2022-08-07T04:52:46.758Z,15.50
2022-08-07T04:58:11.332Z,15.50
2022-08-07T05:01:58.305Z,15.50
2022-08-07T05:05:51.693Z,15.60
2022-08-07T05:08:15.019Z,15.60
2022-08-07T05:11:09.832Z,15.70
2022-08-07T05:14:53.190Z,15.70
2022-08-07T05:17:11.847Z,15.70
2022-08-07T05:19:46.378Z,15.80
2022-08-07T05:22:26.629Z,15.80
2022-08-07T05:24:59.535Z,15.80
2022-08-07T05:28:03.029Z,15.90
2022-08-07T05:30:29.913Z,15.90
2022-08-07T05:32:59.931Z,16.00
2022-08-07T05:35:41.747Z,16.00
2022-08-07T05:38:10.126Z,16.10
2022-08-07T05:40:50.376Z,16.20
2022-08-07T05:43:49.705Z,16.20
2022-08-07T05:46:08.066Z,16.30
2022-08-07T05:48:36.056Z,16.40
2022-08-07T05:51:24.464Z,16.50
2022-08-07T05:54:13.913Z,16.60
2022-08-07T05:56:41.783Z,16.60
2022-08-07T05:59:18.831Z,16.70
2022-08-07T06:01:49.337Z,16.80
2022-08-07T06:04:19.870Z,16.90
2022-08-07T06:06:56.611Z,17.00
2022-08-07T06:10:03.812Z,17.10
2022-08-07T06:12:21.063Z,17.20
2022-08-07T06:14:58.678Z,17.30
2022-08-07T06:17:38.072Z,17.40
2022-08-07T06:20:12.557Z,17.50
2022-08-07T06:23:04.117Z,17.60
2022-08-07T06:25:54.602Z,17.70
2022-08-07T06:28:27.718Z,17.80
2022-08-07T06:30:58.218Z,17.90
2022-08-07T06:33:27.499Z,18.00
2022-08-07T06:36:06.459Z,18.00
2022-08-07T06:38:59.476Z,18.10
2022-08-07T06:42:02.045Z,18.20
2022-08-07T06:44:34.167Z,18.30
2022-08-07T06:47:10.559Z,18.40
2022-08-07T06:49:51.250Z,18.50
2022-08-07T06:52:31.473Z,18.60
2022-08-07T06:55:31.569Z,18.70
2022-08-07T06:58:10.334Z,18.90
2022-08-07T07:00:43.158Z,19.00
2022-08-07T07:03:14.408Z,19.20
2022-08-07T07:06:03.484Z,19.30
2022-08-07T07:08:33.896Z,19.60
2022-08-07T07:11:14.069Z,19.80
2022-08-07T07:14:01.483Z,20.00
2022-08-07T07:16:39.194Z,20.40
2022-08-07T07:19:57.775Z,20.70
2022-08-07T07:22:40.048Z,21.10
2022-08-07T07:26:31.304Z,21.60
2022-08-07T07:28:07.448Z,22.10
2022-08-07T07:30:40.557Z,22.60
2022-08-07T07:33:13.737Z,23.10
2022-08-07T07:36:04.156Z,23.50
2022-08-07T07:38:35.814Z,23.90
2022-08-07T07:41:09.181Z,24.30
2022-08-07T07:43:48.211Z,24.70
2022-08-07T07:46:38.104Z,25.00
2022-08-07T07:50:35.483Z,25.40
2022-08-07T07:52:13.865Z,25.70
2022-08-07T07:54:50.797Z,26.00
2022-08-07T07:57:43.660Z,26.20
2022-08-07T08:00:20.739Z,26.40
2022-08-07T08:03:05.496Z,26.60
2022-08-07T08:05:54.089Z,26.80
2022-08-07T08:08:34.791Z,27.00
2022-08-07T08:11:16.173Z,27.30
2022-08-07T08:13:54.424Z,27.40
2022-08-07T08:16:35.040Z,27.60
2022-08-07T08:19:17.695Z,27.70
2022-08-07T08:22:18.699Z,27.90
2022-08-07T08:25:25.141Z,28.10
2022-08-07T08:28:03.652Z,28.30
2022-08-07T08:30:37.512Z,28.50
2022-08-07T08:33:18.701Z,28.50
2022-08-07T08:35:55.998Z,28.40
2022-08-07T08:38:41.195Z,28.30
2022-08-07T08:41:58.565Z,28.40
2022-08-07T08:44:51.310Z,28.50
2022-08-07T08:47:52.278Z,28.70
2022-08-07T08:50:39.357Z,29.00
2022-08-07T08:53:19.332Z,29.30
2022-08-07T08:56:24.958Z,29.60
2022-08-07T08:59:20.700Z,29.80
2022-08-07T09:02:34.846Z,30.00
2022-08-07T09:05:32.282Z,30.10
2022-08-07T09:08:42.633Z,30.30
2022-08-07T09:12:31.222Z,30.50
2022-08-07T09:16:22.015Z,30.70
2022-08-07T09:19:44.710Z,30.80
2022-08-07T09:24:54.027Z,30.90
2022-08-07T09:26:20.765Z,31.10
2022-08-07T09:30:00.910Z,31.30
2022-08-07T09:32:02.382Z,31.40
2022-08-07T09:34:53.846Z,31.60
2022-08-07T09:37:53.592Z,31.60
2022-08-07T09:40:58.860Z,31.60
2022-08-07T09:44:06.170Z,31.60
2022-08-07T09:47:42.329Z,31.50
2022-08-07T09:50:22.437Z,31.50
2022-08-07T09:53:05.853Z,31.50
2022-08-07T09:56:34.036Z,31.50
2022-08-07T09:59:35.890Z,31.40
2022-08-07T10:04:06.620Z,31.30
2022-08-07T10:06:25.960Z,31.30
2022-08-07T10:10:00.783Z,31.30
2022-08-07T10:12:45.923Z,31.30
2022-08-07T10:16:06.549Z,31.40
2022-08-07T10:19:14.504Z,31.30
2022-08-07T10:22:33.606Z,31.20
2022-08-07T10:25:42.881Z,31.10
2022-08-07T10:28:36.743Z,31.10
2022-08-07T10:31:28.184Z,31.20
2022-08-07T10:34:15.798Z,31.30
2022-08-07T10:37:14.144Z,31.60
2022-08-07T10:40:08.913Z,31.50
2022-08-07T10:43:14.988Z,31.60
2022-08-07T10:45:58.782Z,31.60
2022-08-07T10:48:48.830Z,31.80
2022-08-07T10:52:01.642Z,31.80
2022-08-07T10:55:00.938Z,31.80
2022-08-07T10:58:15.679Z,31.90
2022-08-07T11:01:51.707Z,31.90
2022-08-07T11:05:06.024Z,31.90
2022-08-07T11:08:00.296Z,31.90
2022-08-07T11:10:49.995Z,32.10
2022-08-07T11:14:45.145Z,32.30
2022-08-07T11:16:46.820Z,32.60
2022-08-07T11:19:45.739Z,32.80
2022-08-07T11:22:38.255Z,32.90
2022-08-07T11:26:09.694Z,32.90
2022-08-07T11:28:55.576Z,32.90
2022-08-07T11:31:53.533Z,33.00
2022-08-07T11:35:16.486Z,33.00
2022-08-07T11:38:17.285Z,32.90
2022-08-07T11:40:58.292Z,32.80
2022-08-07T11:43:54.374Z,32.80
2022-08-07T11:47:12.763Z,32.80
2022-08-07T11:50:31.409Z,33.00
2022-08-07T11:53:33.716Z,33.00
2022-08-07T11:56:38.197Z,33.00
2022-08-07T12:00:10.296Z,33.10
2022-08-07T12:02:52.489Z,33.20
2022-08-07T12:06:01.489Z,33.20
2022-08-07T12:09:16.192Z,33.20
2022-08-07T12:12:10.851Z,33.10
2022-08-07T12:15:00.262Z,33.20
2022-08-07T12:17:59.846Z,33.10
2022-08-07T12:20:49.286Z,33.10
2022-08-07T12:24:06.177Z,33.10
2022-08-07T12:26:53.077Z,33.00
2022-08-07T12:29:51.635Z,33.00
2022-08-07T12:32:40.582Z,33.10
2022-08-07T12:35:14.953Z,33.20
2022-08-07T12:38:10.147Z,33.20
2022-08-07T12:40:47.828Z,33.30
2022-08-07T12:44:02.284Z,33.50
2022-08-07T12:47:14.240Z,33.60
2022-08-07T12:50:34.491Z,33.70
2022-08-07T12:54:02.794Z,33.40
2022-08-07T12:56:39.726Z,33.30
2022-08-07T12:59:08.995Z,33.30
2022-08-07T13:02:49.584Z,33.30
2022-08-07T13:06:03.941Z,33.40
2022-08-07T13:08:29.352Z,33.80
2022-08-07T13:12:03.182Z,34.00
2022-08-07T13:15:14.187Z,34.00
2022-08-07T13:18:48.966Z,34.00
2022-08-07T13:21:59.045Z,34.00
2022-08-07T13:25:00.469Z,34.00
2022-08-07T13:28:12.553Z,34.10
2022-08-07T13:31:13.063Z,34.20
2022-08-07T13:34:34.583Z,34.30
2022-08-07T13:37:25.960Z,34.30
2022-08-07T13:40:34.846Z,34.30
2022-08-07T13:43:13.048Z,34.30
2022-08-07T13:46:21.528Z,34.40
2022-08-07T13:48:38.721Z,34.50
2022-08-07T13:51:28.008Z,34.70
2022-08-07T13:54:07.657Z,34.70
2022-08-07T13:56:40.933Z,34.60
2022-08-07T13:59:31.567Z,34.40
2022-08-07T14:02:08.762Z,34.40
2022-08-07T14:04:55.284Z,34.40
2022-08-07T14:07:38.171Z,34.30
2022-08-07T14:10:28.450Z,34.20
2022-08-07T14:13:04.011Z,34.10
2022-08-07T14:15:35.045Z,34.00
2022-08-07T14:18:28.230Z,34.00
2022-08-07T14:22:00.477Z,34.00
2022-08-07T14:24:09.374Z,34.10
2022-08-07T14:26:57.223Z,34.10
2022-08-07T14:30:05.060Z,34.20
2022-08-07T14:32:26.682Z,34.30
2022-08-07T14:34:55.544Z,34.40
2022-08-07T14:37:36.119Z,34.50
2022-08-07T14:40:26.426Z,34.60
2022-08-07T14:43:58.429Z,34.60
2022-08-07T14:45:55.423Z,34.70
2022-08-07T14:48:37.905Z,34.70
2022-08-07T14:51:15.710Z,34.80
2022-08-07T14:54:08.911Z,34.90
2022-08-07T14:56:34.333Z,35.00
2022-08-07T14:59:14.041Z,35.10
2022-08-07T15:02:31.832Z,35.00
2022-08-07T15:05:04.448Z,34.90
2022-08-07T15:07:51.102Z,34.80
2022-08-07T15:13:25.344Z,34.50
2022-08-07T15:16:02.692Z,34.40
2022-08-07T15:18:55.994Z,34.50
2022-08-07T15:21:59.324Z,34.40
2022-08-07T15:27:25.056Z,34.40
2022-08-07T15:30:04.746Z,34.30
2022-08-07T15:33:01.591Z,34.30
2022-08-07T15:36:01.672Z,34.20
2022-08-07T15:38:32.968Z,34.10
2022-08-07T15:44:15.243Z,34.20
2022-08-07T15:46:51.946Z,34.20
2022-08-07T15:50:05.739Z,34.30
2022-08-07T15:52:30.397Z,34.30
2022-08-07T15:55:08.951Z,34.30
2022-08-07T15:57:48.406Z,34.20
2022-08-07T16:00:32.233Z,34.00
2022-08-07T16:03:46.532Z,33.70
2022-08-07T16:06:13.238Z,33.40
2022-08-07T16:08:47.453Z,33.20
2022-08-07T16:12:00.079Z,33.00
2022-08-07T16:15:01.415Z,32.80
2022-08-07T16:18:49.479Z,32.70
2022-08-07T16:22:06.828Z,32.70
2022-08-07T16:25:07.563Z,32.70
2022-08-07T16:30:08.245Z,32.60
2022-08-07T16:31:51.378Z,32.60
2022-08-07T16:34:45.529Z,32.60
2022-08-07T16:38:06.139Z,32.70
2022-08-07T16:41:01.468Z,32.80
2022-08-07T16:44:47.527Z,32.80
2022-08-07T16:48:03.398Z,32.80
2022-08-07T16:51:22.608Z,32.80
2022-08-07T16:54:19.448Z,32.70
2022-08-07T16:57:04.102Z,32.70
2022-08-07T17:00:14.928Z,32.60
2022-08-07T17:03:17.462Z,32.60
2022-08-07T17:06:41.053Z,32.70
2022-08-07T17:10:06.052Z,32.70
2022-08-07T17:12:44.386Z,32.60
2022-08-07T17:15:15.655Z,32.60
2022-08-07T17:17:49.151Z,32.60
2022-08-07T17:20:29.789Z,32.50
2022-08-07T17:23:22.913Z,32.50
2022-08-07T17:26:04.586Z,32.60
2022-08-07T17:28:58.999Z,32.60
2022-08-07T17:32:06.372Z,32.50
2022-08-07T17:35:49.640Z,32.60
2022-08-07T17:38:33.670Z,32.50
2022-08-07T17:42:01.979Z,32.40
2022-08-07T17:44:33.944Z,32.10
2022-08-07T17:47:38.133Z,31.80
2022-08-07T17:50:19.093Z,31.50
2022-08-07T17:53:01.120Z,31.10
2022-08-07T17:56:00.278Z,30.80
2022-08-07T17:58:49.825Z,30.50
2022-08-07T18:01:36.655Z,30.10
2022-08-07T18:04:49.281Z,29.80
2022-08-07T18:07:43.577Z,29.50
2022-08-07T18:10:32.509Z,29.20
2022-08-07T18:13:20.343Z,29.00
2022-08-07T18:16:15.577Z,28.80
2022-08-07T18:21:05.947Z,28.50
2022-08-07T18:22:17.125Z,28.30
2022-08-07T18:25:01.602Z,28.20
2022-08-07T18:28:33.088Z,28.00
2022-08-07T18:31:50.190Z,27.90
2022-08-07T18:35:00.801Z,27.70
2022-08-07T18:38:55.561Z,27.60
2022-08-07T18:40:57.740Z,27.50
2022-08-07T18:44:11.195Z,27.30
2022-08-07T18:47:20.995Z,27.20
2022-08-07T18:50:35.393Z,27.10
2022-08-07T18:53:16.991Z,27.00
2022-08-07T18:56:30.855Z,26.90
2022-08-07T18:59:48.057Z,26.80
2022-08-07T19:03:36.199Z,26.70
2022-08-07T19:06:34.531Z,26.60
2022-08-07T19:09:57.218Z,26.50
2022-08-07T19:12:57.886Z,26.30
2022-08-07T19:17:00.561Z,26.20
2022-08-07T19:19:58.956Z,26.10
2022-08-07T19:23:18.939Z,25.90
2022-08-07T19:26:25.102Z,25.70
2022-08-07T19:30:55.676Z,25.60
2022-08-07T19:32:07.759Z,25.40
2022-08-07T19:34:41.991Z,25.30
2022-08-07T19:37:19.399Z,25.20
2022-08-07T19:40:06.767Z,25.10
2022-08-07T19:42:44.507Z,25.00
2022-08-07T19:46:04.846Z,24.90
2022-08-07T19:48:18.378Z,24.70
2022-08-07T19:50:53.079Z,24.70
2022-08-07T19:54:32.021Z,24.60
2022-08-07T19:58:01.397Z,24.50
2022-08-07T19:59:41.181Z,24.40
2022-08-07T20:02:19.622Z,24.30
2022-08-07T20:04:51.725Z,24.20
2022-08-07T20:07:46.317Z,24.10
2022-08-07T20:10:36.677Z,24.00
2022-08-07T20:13:31.995Z,23.90
2022-08-07T20:16:03.817Z,23.90
2022-08-07T20:18:34.539Z,23.80
2022-08-07T20:21:14.294Z,23.70
2022-08-07T20:23:53.890Z,23.60
2022-08-07T20:26:32.492Z,23.60
2022-08-07T20:29:17.101Z,23.50
2022-08-07T20:32:02.875Z,23.40
2022-08-07T20:34:50.286Z,23.40
2022-08-07T20:37:29.541Z,23.40
2022-08-07T20:40:03.973Z,23.30
2022-08-07T20:42:37.744Z,23.20
2022-08-07T20:45:32.570Z,23.20
2022-08-07T20:47:58.443Z,23.10
2022-08-07T20:50:29.253Z,23.10
2022-08-07T20:52:59.537Z,23.00
2022-08-07T20:55:32.218Z,22.90
2022-08-07T20:58:11.881Z,22.80
2022-08-07T21:00:57.850Z,22.80
2022-08-07T21:03:27.775Z,22.70
2022-08-07T21:06:22.294Z,22.70
2022-08-07T21:09:14.135Z,22.60
2022-08-07T21:11:50.918Z,22.60
2022-08-07T21:14:33.156Z,22.50
2022-08-07T21:18:03.031Z,22.40
2022-08-07T21:20:09.951Z,22.40
2022-08-07T21:22:53.510Z,22.40
2022-08-07T21:25:42.612Z,22.30
2022-08-07T21:28:48.961Z,22.20
2022-08-07T21:32:46.823Z,22.20
2022-08-07T21:35:10.811Z,22.10
2022-08-07T21:38:07.285Z,22.00
2022-08-07T21:40:47.708Z,22.00
2022-08-07T21:43:56.038Z,21.90
2022-08-07T21:46:49.841Z,21.90
2022-08-07T21:50:00.773Z,21.90
2022-08-07T21:52:56.866Z,21.80
2022-08-07T21:55:42.873Z,21.70
2022-08-07T21:58:32.253Z,21.70
2022-08-07T22:01:13.707Z,21.60
2022-08-07T22:04:02.703Z,21.60
2022-08-07T22:07:06.046Z,21.50
2022-08-07T22:09:54.107Z,21.40
2022-08-07T22:12:50.764Z,21.40
2022-08-07T22:16:35.807Z,21.30
2022-08-07T22:18:32.277Z,21.30
2022-08-07T22:21:25.176Z,21.30
2022-08-07T22:24:41.298Z,21.20
2022-08-07T22:28:08.055Z,21.20
2022-08-07T22:31:11.394Z,21.10
2022-08-07T22:34:12.922Z,21.10
2022-08-07T22:37:21.235Z,21.00
2022-08-07T22:40:10.754Z,21.00
2022-08-07T22:42:44.441Z,21.00
2022-08-07T22:46:04.262Z,20.90
2022-08-07T22:48:54.912Z,20.90
2022-08-07T22:52:10.023Z,20.80
2022-08-07T22:55:22.468Z,20.80
2022-08-07T22:58:04.490Z,20.70
2022-08-07T23:01:09.005Z,20.70
2022-08-07T23:04:30.138Z,20.60
2022-08-07T23:07:50.792Z,20.60
2022-08-07T23:10:59.270Z,20.50
2022-08-07T23:14:10.696Z,20.50
2022-08-07T23:17:35.491Z,20.40
2022-08-07T23:20:52.745Z,20.30
2022-08-07T23:24:07.025Z,20.30
2022-08-07T23:26:50.171Z,20.20
2022-08-07T23:30:36.978Z,20.10
2022-08-07T23:34:34.210Z,20.10
2022-08-07T23:36:10.724Z,20.10
2022-08-07T23:39:35.980Z,20.00
2022-08-07T23:42:49.564Z,20.00
2022-08-07T23:46:03.302Z,19.90
2022-08-07T23:48:58.855Z,19.90
2022-08-07T23:52:58.661Z,19.80
2022-08-07T23:54:53.152Z,19.80
2022-08-07T23:57:43.182Z,19.70
